sensor_id;sensor_type;location;lat;lon;timestamp;pressure;altitude;pressure_sealevel;temperature;humidity
21276;BME280;36472;52.170;20.884;2023-03-12T00:01:23;99445.88;;;1.27;75.73
21276;BME280;36472;52.170;20.884;2023-03-12T00:04:00;99444.00;;;1.31;76.48
21276;BME280;36472;52.170;20.884;2023-03-12T00:06:30;99446.69;;;1.28;76.24
21276;BME280;36472;52.170;20.884;2023-03-12T00:08:59;99438.94;;;1.28;77.07
21276;BME280;36472;52.170;20.884;2023-03-12T00:11:30;99441.34;;;1.33;77.00
21276;BME280;36472;52.170;20.884;2023-03-12T00:13:59;99438.81;;;1.31;76.77
21276;BME280;36472;52.170;20.884;2023-03-12T00:16:28;99440.50;;;1.32;77.26
21276;BME280;36472;52.170;20.884;2023-03-12T00:18:59;99433.38;;;1.37;77.53
21276;BME280;36472;52.170;20.884;2023-03-12T00:21:28;99431.63;;;1.38;77.69
21276;BME280;36472;52.170;20.884;2023-03-12T00:23:57;99432.47;;;1.38;78.36
21276;BME280;36472;52.170;20.884;2023-03-12T00:26:26;99418.75;;;1.36;77.99
21276;BME280;36472;52.170;20.884;2023-03-12T00:28:56;99420.69;;;1.31;78.78
21276;BME280;36472;52.170;20.884;2023-03-12T00:31:27;99419.81;;;1.32;79.06
21276;BME280;36472;52.170;20.884;2023-03-12T00:34:01;99413.50;;;1.38;78.73
21276;BME280;36472;52.170;20.884;2023-03-12T00:36:31;99408.53;;;1.33;79.25
21276;BME280;36472;52.170;20.884;2023-03-12T00:39:01;99410.28;;;1.33;79.33
21276;BME280;36472;52.170;20.884;2023-03-12T00:41:30;99409.44;;;1.32;79.79
21276;BME280;36472;52.170;20.884;2023-03-12T00:43:59;99412.22;;;1.27;79.59
21276;BME280;36472;52.170;20.884;2023-03-12T00:46:28;99400.13;;;1.28;80.03
21276;BME280;36472;52.170;20.884;2023-03-12T00:48:59;99412.94;;;1.31;79.83
21276;BME280;36472;52.170;20.884;2023-03-12T00:51:28;99402.38;;;1.36;79.79
21276;BME280;36472;52.170;20.884;2023-03-12T00:53:57;99405.03;;;1.34;80.04
21276;BME280;36472;52.170;20.884;2023-03-12T00:56:26;99406.22;;;1.27;79.81
21276;BME280;36472;52.170;20.884;2023-03-12T00:58:55;99409.69;;;1.26;79.79
21276;BME280;36472;52.170;20.884;2023-03-12T01:01:24;99401.28;;;1.21;79.71
21276;BME280;36472;52.170;20.884;2023-03-12T01:03:54;99401.16;;;1.24;79.85
21276;BME280;36472;52.170;20.884;2023-03-12T01:06:26;99399.63;;;1.20;79.91
21276;BME280;36472;52.170;20.884;2023-03-12T01:08:55;99407.44;;;1.18;79.79
21276;BME280;36472;52.170;20.884;2023-03-12T01:11:24;99398.69;;;1.21;79.35
21276;BME280;36472;52.170;20.884;2023-03-12T01:13:53;99406.34;;;1.24;79.44
21276;BME280;36472;52.170;20.884;2023-03-12T01:16:22;99401.28;;;1.21;78.88
21276;BME280;36472;52.170;20.884;2023-03-12T01:18:55;99402.06;;;1.23;79.25
21276;BME280;36472;52.170;20.884;2023-03-12T01:21:28;99395.41;;;1.17;79.27
21276;BME280;36472;52.170;20.884;2023-03-12T01:23:57;99390.22;;;1.17;78.86
21276;BME280;36472;52.170;20.884;2023-03-12T01:26:27;99389.53;;;1.14;78.80
21276;BME280;36472;52.170;20.884;2023-03-12T01:28:56;99386.75;;;1.18;78.66
21276;BME280;36472;52.170;20.884;2023-03-12T01:31:25;99385.38;;;1.30;78.96
21276;BME280;36472;52.170;20.884;2023-03-12T01:33:54;99381.75;;;1.34;78.66
21276;BME280;36472;52.170;20.884;2023-03-12T01:36:27;99383.28;;;1.38;78.11
21276;BME280;36472;52.170;20.884;2023-03-12T01:38:58;99376.16;;;1.43;78.01
21276;BME280;36472;52.170;20.884;2023-03-12T01:41:29;99370.31;;;1.38;77.96
21276;BME280;36472;52.170;20.884;2023-03-12T01:44:01;99367.34;;;1.47;77.80
21276;BME280;36472;52.170;20.884;2023-03-12T01:46:33;99371.53;;;1.50;77.71
21276;BME280;36472;52.170;20.884;2023-03-12T01:49:12;99369.00;;;1.48;77.44
21276;BME280;36472;52.170;20.884;2023-03-12T01:51:47;99372.41;;;1.51;77.92
21276;BME280;36472;52.170;20.884;2023-03-12T01:54:23;99369.00;;;1.48;77.75
21276;BME280;36472;52.170;20.884;2023-03-12T01:56:55;99369.66;;;1.54;77.81
21276;BME280;36472;52.170;20.884;2023-03-12T01:59:31;99366.66;;;1.63;77.55
21276;BME280;36472;52.170;20.884;2023-03-12T02:02:02;99365.75;;;1.64;77.23
21276;BME280;36472;52.170;20.884;2023-03-12T02:04:33;99365.53;;;1.68;77.16
21276;BME280;36472;52.170;20.884;2023-03-12T02:07:07;99380.88;;;1.73;77.08
21276;BME280;36472;52.170;20.884;2023-03-12T02:09:41;99379.31;;;1.69;77.51
21276;BME280;36472;52.170;20.884;2023-03-12T02:12:12;99380.81;;;1.75;77.06
21276;BME280;36472;52.170;20.884;2023-03-12T02:14:41;99379.97;;;1.74;76.86
21276;BME280;36472;52.170;20.884;2023-03-12T02:17:11;99381.66;;;1.75;76.66
21276;BME280;36472;52.170;20.884;2023-03-12T02:19:50;99377.38;;;1.74;76.64
21276;BME280;36472;52.170;20.884;2023-03-12T02:22:24;99385.44;;;1.68;76.77
21276;BME280;36472;52.170;20.884;2023-03-12T02:25:01;99381.03;;;1.70;76.55
21276;BME280;36472;52.170;20.884;2023-03-12T02:27:36;99378.69;;;1.64;76.73
21276;BME280;36472;52.170;20.884;2023-03-12T02:30:08;99383.03;;;1.63;77.17
21276;BME280;36472;52.170;20.884;2023-03-12T02:32:44;99378.50;;;1.68;76.92
21276;BME280;36472;52.170;20.884;2023-03-12T02:35:16;99374.94;;;1.71;77.09
21276;BME280;36472;52.170;20.884;2023-03-12T02:37:50;99380.75;;;1.76;76.55
21276;BME280;36472;52.170;20.884;2023-03-12T02:40:27;99378.22;;;1.75;76.93
21276;BME280;36472;52.170;20.884;2023-03-12T02:42:59;99379.13;;;1.74;76.57
21276;BME280;36472;52.170;20.884;2023-03-12T02:45:30;99384.25;;;1.75;76.23
21276;BME280;36472;52.170;20.884;2023-03-12T02:48:01;99382.78;;;1.70;76.22
21276;BME280;36472;52.170;20.884;2023-03-12T02:50:30;99388.22;;;1.63;76.44
21276;BME280;36472;52.170;20.884;2023-03-12T02:52:59;99383.88;;;1.64;76.59
21276;BME280;36472;52.170;20.884;2023-03-12T02:55:28;99388.34;;;1.60;76.33
21276;BME280;36472;52.170;20.884;2023-03-12T02:57:59;99373.81;;;1.58;76.25
21276;BME280;36472;52.170;20.884;2023-03-12T03:00:30;99370.28;;;1.59;76.65
21276;BME280;36472;52.170;20.884;2023-03-12T03:03:00;99373.81;;;1.58;76.40
21276;BME280;36472;52.170;20.884;2023-03-12T03:05:29;99375.34;;;1.62;76.37
21276;BME280;36472;52.170;20.884;2023-03-12T03:07:58;99387.25;;;1.66;76.65
21276;BME280;36472;52.170;20.884;2023-03-12T03:10:27;99395.78;;;1.68;76.26
21276;BME280;36472;52.170;20.884;2023-03-12T03:12:59;99388.28;;;1.62;75.95
21276;BME280;36472;52.170;20.884;2023-03-12T03:15:28;99395.84;;;1.66;76.24
21276;BME280;36472;52.170;20.884;2023-03-12T03:17:57;99395.78;;;1.68;75.84
21276;BME280;36472;52.170;20.884;2023-03-12T03:20:26;99397.75;;;1.63;76.37
21276;BME280;36472;52.170;20.884;2023-03-12T03:22:55;99396.06;;;1.62;76.53
21276;BME280;36472;52.170;20.884;2023-03-12T03:25:24;99414.81;;;1.67;76.21
21276;BME280;36472;52.170;20.884;2023-03-12T03:27:53;99418.13;;;1.71;75.78
21276;BME280;36472;52.170;20.884;2023-03-12T03:30:24;99424.78;;;1.76;75.90
21276;BME280;36472;52.170;20.884;2023-03-12T03:32:53;99428.03;;;1.81;75.97
21276;BME280;36472;52.170;20.884;2023-03-12T03:35:23;99425.75;;;1.74;76.16
21276;BME280;36472;52.170;20.884;2023-03-12T03:37:52;99432.06;;;1.87;76.02
21276;BME280;36472;52.170;20.884;2023-03-12T03:40:21;99439.22;;;1.82;75.40
21276;BME280;36472;52.170;20.884;2023-03-12T03:42:50;99446.91;;;1.83;76.19
21276;BME280;36472;52.170;20.884;2023-03-12T03:45:19;99451.97;;;1.86;75.91
21276;BME280;36472;52.170;20.884;2023-03-12T03:47:50;99442.44;;;1.87;75.88
21276;BME280;36472;52.170;20.884;2023-03-12T03:50:19;99447.44;;;1.92;75.28
21276;BME280;36472;52.170;20.884;2023-03-12T03:52:49;99434.72;;;1.85;75.48
21276;BME280;36472;52.170;20.884;2023-03-12T03:55:18;99444.03;;;1.90;75.88
21276;BME280;36472;52.170;20.884;2023-03-12T03:57:47;99443.41;;;1.84;76.18
21276;BME280;36472;52.170;20.884;2023-03-12T04:00:17;99450.41;;;1.82;75.95
21276;BME280;36472;52.170;20.884;2023-03-12T04:02:49;99449.22;;;1.90;75.73
21276;BME280;36472;52.170;20.884;2023-03-12T04:05:19;99456.72;;;1.96;76.22
21276;BME280;36472;52.170;20.884;2023-03-12T04:07:51;99455.03;;;1.95;75.52
21276;BME280;36472;52.170;20.884;2023-03-12T04:10:24;99458.50;;;1.95;76.10
21276;BME280;36472;52.170;20.884;2023-03-12T04:12:53;99456.78;;;1.94;76.01
21276;BME280;36472;52.170;20.884;2023-03-12T04:15:22;99460.09;;;1.98;76.15
21276;BME280;36472;52.170;20.884;2023-03-12T04:17:52;99459.53;;;1.91;75.87
21276;BME280;36472;52.170;20.884;2023-03-12T04:20:22;99454.06;;;1.97;76.29
21276;BME280;36472;52.170;20.884;2023-03-12T04:22:51;99461.91;;;1.96;76.11
21276;BME280;36472;52.170;20.884;2023-03-12T04:25:20;99449.72;;;1.98;76.01
21276;BME280;36472;52.170;20.884;2023-03-12T04:27:49;99459.69;;;2.07;75.79
21276;BME280;36472;52.170;20.884;2023-03-12T04:30:19;99460.94;;;1.98;75.88
21276;BME280;36472;52.170;20.884;2023-03-12T04:32:48;99459.97;;;2.01;76.27
21276;BME280;36472;52.170;20.884;2023-03-12T04:35:19;99466.06;;;2.00;76.09
21276;BME280;36472;52.170;20.884;2023-03-12T04:37:48;99457.09;;;2.07;76.02
21276;BME280;36472;52.170;20.884;2023-03-12T04:40:18;99465.78;;;2.06;76.60
21276;BME280;36472;52.170;20.884;2023-03-12T04:42:47;99458.75;;;2.08;76.10
21276;BME280;36472;52.170;20.884;2023-03-12T04:45:16;99467.97;;;2.15;76.68
21276;BME280;36472;52.170;20.884;2023-03-12T04:47:46;99455.78;;;2.17;76.33
21276;BME280;36472;52.170;20.884;2023-03-12T04:50:17;99459.41;;;2.13;76.24
21276;BME280;36472;52.170;20.884;2023-03-12T04:52:46;99458.06;;;2.23;75.81
21276;BME280;36472;52.170;20.884;2023-03-12T04:55:16;99459.00;;;2.22;76.12
21276;BME280;36472;52.170;20.884;2023-03-12T04:57:45;99451.97;;;2.24;76.06
21276;BME280;36472;52.170;20.884;2023-03-12T05:00:15;99459.13;;;2.19;76.19
21276;BME280;36472;52.170;20.884;2023-03-12T05:02:45;99456.34;;;2.24;75.56
21276;BME280;36472;52.170;20.884;2023-03-12T05:05:14;99463.06;;;2.28;75.90
21276;BME280;36472;52.170;20.884;2023-03-12T05:07:45;99467.28;;;2.31;75.98
21276;BME280;36472;52.170;20.884;2023-03-12T05:10:14;99466.53;;;2.27;75.87
21276;BME280;36472;52.170;20.884;2023-03-12T05:12:43;99461.22;;;2.30;75.95
21276;BME280;36472;52.170;20.884;2023-03-12T05:15:12;99466.63;;;2.26;76.48
21276;BME280;36472;52.170;20.884;2023-03-12T05:17:44;99470.19;;;2.23;76.56
21276;BME280;36472;52.170;20.884;2023-03-12T05:20:13;99470.25;;;2.21;76.68
21276;BME280;36472;52.170;20.884;2023-03-12T05:22:47;99476.09;;;2.27;76.79
21276;BME280;36472;52.170;20.884;2023-03-12T05:25:16;99470.06;;;2.26;76.53
21276;BME280;36472;52.170;20.884;2023-03-12T05:27:45;99470.69;;;2.31;76.81
21276;BME280;36472;52.170;20.884;2023-03-12T05:30:15;99470.63;;;2.33;76.38
21276;BME280;36472;52.170;20.884;2023-03-12T05:32:44;99480.38;;;2.28;76.83
21276;BME280;36472;52.170;20.884;2023-03-12T05:35:14;99476.84;;;2.29;76.95
21276;BME280;36472;52.170;20.884;2023-03-12T05:37:46;99477.72;;;2.29;76.72
21276;BME280;36472;52.170;20.884;2023-03-12T05:40:15;99488.00;;;2.31;76.10
21276;BME280;36472;52.170;20.884;2023-03-12T05:42:44;99493.03;;;2.34;76.18
21276;BME280;36472;52.170;20.884;2023-03-12T05:45:14;99493.53;;;2.42;76.23
21276;BME280;36472;52.170;20.884;2023-03-12T05:47:46;99494.59;;;2.38;75.86
21276;BME280;36472;52.170;20.884;2023-03-12T05:50:17;99494.78;;;2.33;75.98
21276;BME280;36472;52.170;20.884;2023-03-12T05:52:47;99492.25;;;2.32;76.41
21276;BME280;36472;52.170;20.884;2023-03-12T05:55:16;99486.81;;;2.38;76.01
21276;BME280;36472;52.170;20.884;2023-03-12T05:57:46;99501.44;;;2.39;76.07
21276;BME280;36472;52.170;20.884;2023-03-12T06:00:17;99494.34;;;2.42;75.80
21276;BME280;36472;52.170;20.884;2023-03-12T06:02:53;99504.66;;;2.44;75.67
21276;BME280;36472;52.170;20.884;2023-03-12T06:05:22;99508.25;;;2.41;76.03
21276;BME280;36472;52.170;20.884;2023-03-12T06:07:53;99500.91;;;2.51;75.35
21276;BME280;36472;52.170;20.884;2023-03-12T06:10:22;99504.41;;;2.50;75.31
21276;BME280;36472;52.170;20.884;2023-03-12T06:12:51;99515.03;;;2.44;75.38
21276;BME280;36472;52.170;20.884;2023-03-12T06:15:20;99518.50;;;2.45;75.53
21276;BME280;36472;52.170;20.884;2023-03-12T06:17:49;99524.16;;;2.53;75.44
21276;BME280;36472;52.170;20.884;2023-03-12T06:20:19;99534.75;;;2.48;75.46
21276;BME280;36472;52.170;20.884;2023-03-12T06:22:48;99527.66;;;2.52;74.95
21276;BME280;36472;52.170;20.884;2023-03-12T06:25:18;99533.00;;;2.49;74.82
21276;BME280;36472;52.170;20.884;2023-03-12T06:27:47;99530.34;;;2.50;74.73
21276;BME280;36472;52.170;20.884;2023-03-12T06:30:17;99528.44;;;2.54;74.61
21276;BME280;36472;52.170;20.884;2023-03-12T06:32:45;99527.22;;;2.61;74.59
21276;BME280;36472;52.170;20.884;2023-03-12T06:35:15;99535.88;;;2.61;74.74
21276;BME280;36472;52.170;20.884;2023-03-12T06:37:44;99542.47;;;2.69;74.34
21276;BME280;36472;52.170;20.884;2023-03-12T06:40:13;99536.63;;;2.83;74.01
21276;BME280;36472;52.170;20.884;2023-03-12T06:42:43;99539.84;;;2.88;74.47
21276;BME280;36472;52.170;20.884;2023-03-12T06:45:12;99542.56;;;2.85;74.54
21276;BME280;36472;52.170;20.884;2023-03-12T06:47:41;99544.19;;;2.87;74.51
21276;BME280;36472;52.170;20.884;2023-03-12T06:50:10;99552.19;;;2.83;74.47
21276;BME280;36472;52.170;20.884;2023-03-12T06:52:39;99555.00;;;2.78;74.93
21276;BME280;36472;52.170;20.884;2023-03-12T06:55:09;99558.38;;;2.61;75.67
21276;BME280;36472;52.170;20.884;2023-03-12T06:57:38;99546.88;;;2.67;75.44
21276;BME280;36472;52.170;20.884;2023-03-12T07:00:10;99570.06;;;2.70;74.92
21276;BME280;36472;52.170;20.884;2023-03-12T07:02:39;99562.63;;;2.81;75.12
21276;BME280;36472;52.170;20.884;2023-03-12T07:05:09;99567.69;;;2.84;75.56
21276;BME280;36472;52.170;20.884;2023-03-12T07:07:38;99575.34;;;2.87;75.48
21276;BME280;36472;52.170;20.884;2023-03-12T07:10:09;99582.63;;;2.79;76.05
21276;BME280;36472;52.170;20.884;2023-03-12T07:12:38;99586.56;;;2.69;76.71
21276;BME280;36472;52.170;20.884;2023-03-12T07:15:10;99583.47;;;2.79;76.90
21276;BME280;36472;52.170;20.884;2023-03-12T07:17:39;99579.59;;;2.88;76.56
21276;BME280;36472;52.170;20.884;2023-03-12T07:20:10;99589.78;;;2.93;76.69
21276;BME280;36472;52.170;20.884;2023-03-12T07:22:39;99587.59;;;3.03;75.84
21276;BME280;36472;52.170;20.884;2023-03-12T07:25:09;99586.53;;;3.07;75.26
21276;BME280;36472;52.170;20.884;2023-03-12T07:27:38;99598.38;;;3.12;75.41
21276;BME280;36472;52.170;20.884;2023-03-12T07:30:10;99588.78;;;3.14;73.99
21276;BME280;36472;52.170;20.884;2023-03-12T07:32:40;99584.50;;;3.13;73.35
21276;BME280;36472;52.170;20.884;2023-03-12T07:35:09;99582.97;;;3.09;72.89
21276;BME280;36472;52.170;20.884;2023-03-12T07:37:38;99597.03;;;3.23;71.60
21276;BME280;36472;52.170;20.884;2023-03-12T07:40:09;99603.31;;;3.36;70.69
21276;BME280;36472;52.170;20.884;2023-03-12T07:42:38;99612.41;;;3.45;70.19
21276;BME280;36472;52.170;20.884;2023-03-12T07:45:10;99600.44;;;3.42;68.98
21276;BME280;36472;52.170;20.884;2023-03-12T07:47:39;99610.78;;;3.61;68.32
21276;BME280;36472;52.170;20.884;2023-03-12T07:50:10;99618.78;;;3.74;66.75
21276;BME280;36472;52.170;20.884;2023-03-12T07:52:39;99611.78;;;3.76;65.79
21276;BME280;36472;52.170;20.884;2023-03-12T07:55:09;99627.44;;;3.74;64.97
21276;BME280;36472;52.170;20.884;2023-03-12T07:57:39;99626.81;;;3.87;66.02
21276;BME280;36472;52.170;20.884;2023-03-12T08:00:11;99621.91;;;3.81;65.72
21276;BME280;36472;52.170;20.884;2023-03-12T08:02:40;99641.19;;;3.94;65.25
21276;BME280;36472;52.170;20.884;2023-03-12T08:05:09;99630.03;;;4.09;64.25
21276;BME280;36472;52.170;20.884;2023-03-12T08:07:39;99639.66;;;4.25;63.18
21276;BME280;36472;52.170;20.884;2023-03-12T08:10:10;99637.97;;;4.57;62.07
21276;BME280;36472;52.170;20.884;2023-03-12T08:12:39;99644.31;;;4.69;60.77
21276;BME280;36472;52.170;20.884;2023-03-12T08:15:10;99642.28;;;4.58;60.59
21276;BME280;36472;52.170;20.884;2023-03-12T08:17:40;99647.59;;;4.39;61.41
21276;BME280;36472;52.170;20.884;2023-03-12T08:20:11;99649.53;;;4.18;61.84
21276;BME280;36472;52.170;20.884;2023-03-12T08:22:40;99662.31;;;3.88;62.37
21276;BME280;36472;52.170;20.884;2023-03-12T08:25:10;99648.78;;;3.81;62.87
21276;BME280;36472;52.170;20.884;2023-03-12T08:27:39;99658.31;;;3.81;63.63
21276;BME280;36472;52.170;20.884;2023-03-12T08:30:11;99660.91;;;3.81;64.12
21276;BME280;36472;52.170;20.884;2023-03-12T08:32:40;99661.38;;;3.71;64.69
21276;BME280;36472;52.170;20.884;2023-03-12T08:35:09;99671.34;;;3.62;64.39
21276;BME280;36472;52.170;20.884;2023-03-12T08:37:38;99665.59;;;3.91;64.96
21276;BME280;36472;52.170;20.884;2023-03-12T08:40:10;99667.03;;;4.15;63.65
21276;BME280;36472;52.170;20.884;2023-03-12T08:42:41;99668.28;;;4.07;62.33
21276;BME280;36472;52.170;20.884;2023-03-12T08:45:12;99672.25;;;3.97;62.68
21276;BME280;36472;52.170;20.884;2023-03-12T08:47:42;99674.16;;;3.76;63.38
21276;BME280;36472;52.170;20.884;2023-03-12T08:50:13;99677.94;;;3.69;63.34
21276;BME280;36472;52.170;20.884;2023-03-12T08:52:43;99678.34;;;3.79;63.27
21276;BME280;36472;52.170;20.884;2023-03-12T08:55:12;99688.94;;;4.10;63.12
21276;BME280;36472;52.170;20.884;2023-03-12T08:57:41;99685.78;;;4.21;60.97
21276;BME280;36472;52.170;20.884;2023-03-12T09:00:14;99680.38;;;4.59;59.12
21276;BME280;36472;52.170;20.884;2023-03-12T09:02:45;99683.06;;;4.91;56.42
21276;BME280;36472;52.170;20.884;2023-03-12T09:05:16;99682.44;;;4.70;54.87
21276;BME280;36472;52.170;20.884;2023-03-12T09:07:45;99682.59;;;4.67;53.71
21276;BME280;36472;52.170;20.884;2023-03-12T09:10:17;99694.06;;;4.80;53.64
21276;BME280;36472;52.170;20.884;2023-03-12T09:12:45;99689.69;;;4.81;53.27
21276;BME280;36472;52.170;20.884;2023-03-12T09:15:16;99699.31;;;4.63;52.76
21276;BME280;36472;52.170;20.884;2023-03-12T09:17:45;99699.16;;;4.48;53.59
21276;BME280;36472;52.170;20.884;2023-03-12T09:20:15;99702.31;;;4.20;53.97
21276;BME280;36472;52.170;20.884;2023-03-12T09:22:44;99701.16;;;4.43;53.76
21276;BME280;36472;52.170;20.884;2023-03-12T09:25:14;99710.81;;;4.75;53.06
21276;BME280;36472;52.170;20.884;2023-03-12T09:27:45;99709.72;;;4.63;51.74
21276;BME280;36472;52.170;20.884;2023-03-12T09:30:19;99708.97;;;4.26;52.42
21276;BME280;36472;52.170;20.884;2023-03-12T09:32:48;99700.84;;;4.15;52.33
21276;BME280;36472;52.170;20.884;2023-03-12T09:35:17;99708.53;;;4.68;52.23
21276;BME280;36472;52.170;20.884;2023-03-12T09:37:48;99718.56;;;5.41;51.49
21276;BME280;36472;52.170;20.884;2023-03-12T09:40:21;99726.44;;;5.24;49.78
21276;BME280;36472;52.170;20.884;2023-03-12T09:42:54;99723.59;;;5.13;53.00
21276;BME280;36472;52.170;20.884;2023-03-12T09:45:31;99722.84;;;5.27;54.13
21276;BME280;36472;52.170;20.884;2023-03-12T09:48:06;99719.78;;;5.82;53.55
21276;BME280;36472;52.170;20.884;2023-03-12T09:50:42;99733.88;;;6.26;52.82
21276;BME280;36472;52.170;20.884;2023-03-12T09:53:24;99732.94;;;6.86;50.15
21276;BME280;36472;52.170;20.884;2023-03-12T09:55:58;99730.91;;;6.77;48.43
21276;BME280;36472;52.170;20.884;2023-03-12T09:58:33;99723.25;;;6.29;49.58
21276;BME280;36472;52.170;20.884;2023-03-12T10:01:26;99734.44;;;5.85;49.44
21276;BME280;36472;52.170;20.884;2023-03-12T10:04:29;99736.22;;;5.68;49.66
21276;BME280;36472;52.170;20.884;2023-03-12T10:07:17;99750.78;;;5.72;49.80
21276;BME280;36472;52.170;20.884;2023-03-12T10:10:09;99743.78;;;5.41;48.50
21276;BME280;36472;52.170;20.884;2023-03-12T10:12:57;99751.56;;;5.09;50.13
21276;BME280;36472;52.170;20.884;2023-03-12T10:15:39;99750.03;;;5.21;52.09
21276;BME280;36472;52.170;20.884;2023-03-12T10:18:29;99734.44;;;5.85;50.50
21276;BME280;36472;52.170;20.884;2023-03-12T10:21:16;99756.31;;;5.50;50.18
21276;BME280;36472;52.170;20.884;2023-03-12T10:24:11;99741.41;;;5.84;50.42
21276;BME280;36472;52.170;20.884;2023-03-12T10:26:48;99741.25;;;6.33;50.20
21276;BME280;36472;52.170;20.884;2023-03-12T10:29:22;99759.75;;;7.60;45.29
21276;BME280;36472;52.170;20.884;2023-03-12T10:31:58;99756.94;;;7.77;45.22
21276;BME280;36472;52.170;20.884;2023-03-12T10:34:36;99767.94;;;7.12;46.01
21276;BME280;36472;52.170;20.884;2023-03-12T10:37:17;99763.69;;;7.67;45.85
21276;BME280;36472;52.170;20.884;2023-03-12T10:39:49;99775.72;;;7.70;44.67
21276;BME280;36472;52.170;20.884;2023-03-12T10:42:21;99770.53;;;6.98;45.58
21276;BME280;36472;52.170;20.884;2023-03-12T10:44:53;99767.88;;;6.24;46.71
21276;BME280;36472;52.170;20.884;2023-03-12T10:47:33;99769.09;;;5.87;46.71
21276;BME280;36472;52.170;20.884;2023-03-12T10:50:15;99766.91;;;5.47;47.92
21276;BME280;36472;52.170;20.884;2023-03-12T10:52:46;99775.50;;;5.81;48.48
21276;BME280;36472;52.170;20.884;2023-03-12T10:55:23;99779.34;;;5.74;47.56
21276;BME280;36472;52.170;20.884;2023-03-12T10:57:53;99781.38;;;6.01;48.04
21276;BME280;36472;52.170;20.884;2023-03-12T11:00:25;99777.63;;;7.39;45.90
21276;BME280;36472;52.170;20.884;2023-03-12T11:03:00;99785.66;;;8.46;45.01
21276;BME280;36472;52.170;20.884;2023-03-12T11:05:35;99790.53;;;8.38;43.05
21276;BME280;36472;52.170;20.884;2023-03-12T11:08:20;99795.13;;;7.80;43.50
21276;BME280;36472;52.170;20.884;2023-03-12T11:10:51;99783.09;;;7.77;43.23
21276;BME280;36472;52.170;20.884;2023-03-12T11:13:29;99787.97;;;7.69;43.10
21276;BME280;36472;52.170;20.884;2023-03-12T11:16:00;99799.56;;;8.19;40.98
21276;BME280;36472;52.170;20.884;2023-03-12T11:18:33;99797.94;;;8.58;40.78
21276;BME280;36472;52.170;20.884;2023-03-12T11:21:17;99801.50;;;7.76;42.58
21276;BME280;36472;52.170;20.884;2023-03-12T11:24:07;99803.09;;;7.49;42.77
21276;BME280;36472;52.170;20.884;2023-03-12T11:26:46;99813.84;;;7.30;44.14
21276;BME280;36472;52.170;20.884;2023-03-12T11:29:25;99806.56;;;6.92;43.95
21276;BME280;36472;52.170;20.884;2023-03-12T11:32:14;99800.63;;;6.60;44.21
21276;BME280;36472;52.170;20.884;2023-03-12T11:34:45;99810.56;;;6.98;43.13
21276;BME280;36472;52.170;20.884;2023-03-12T11:37:27;99805.50;;;6.66;43.29
21276;BME280;36472;52.170;20.884;2023-03-12T11:40:17;99805.22;;;6.41;44.30
21276;BME280;36472;52.170;20.884;2023-03-12T11:43:09;99812.31;;;6.23;44.21
21276;BME280;36472;52.170;20.884;2023-03-12T11:46:20;99801.59;;;5.97;44.51
21276;BME280;36472;52.170;20.884;2023-03-12T11:49:13;99805.50;;;6.36;44.13
21276;BME280;36472;52.170;20.884;2023-03-12T11:51:54;99807.03;;;6.24;44.15
21276;BME280;36472;52.170;20.884;2023-03-12T11:58:04;99807.47;;;5.85;44.76
21276;BME280;36472;52.170;20.884;2023-03-12T12:00:46;99812.00;;;5.81;46.02
21276;BME280;36472;52.170;20.884;2023-03-12T12:04:02;99816.78;;;5.73;45.45
21276;BME280;36472;52.170;20.884;2023-03-12T12:06:51;99816.19;;;5.52;46.05
21276;BME280;36472;52.170;20.884;2023-03-12T12:09:36;99830.47;;;6.40;44.11
21276;BME280;36472;52.170;20.884;2023-03-12T12:12:47;99810.28;;;7.17;41.78
21276;BME280;36472;52.170;20.884;2023-03-12T12:15:32;99807.31;;;6.64;42.98
21276;BME280;36472;52.170;20.884;2023-03-12T12:18:27;99817.97;;;6.31;43.69
21276;BME280;36472;52.170;20.884;2023-03-12T12:21:05;99817.41;;;6.10;44.18
21276;BME280;36472;52.170;20.884;2023-03-12T12:23:49;99823.44;;;5.94;44.41
21276;BME280;36472;52.170;20.884;2023-03-12T12:26:30;99848.81;;;5.75;44.22
21276;BME280;36472;52.170;20.884;2023-03-12T12:29:27;99831.31;;;5.45;43.92
21276;BME280;36472;52.170;20.884;2023-03-12T12:32:00;99821.72;;;5.46;44.34
21276;BME280;36472;52.170;20.884;2023-03-12T12:34:59;99822.00;;;5.57;44.03
21276;BME280;36472;52.170;20.884;2023-03-12T12:37:52;99837.38;;;5.61;44.19
21276;BME280;36472;52.170;20.884;2023-03-12T12:40:28;99845.69;;;5.52;44.22
21276;BME280;36472;52.170;20.884;2023-03-12T12:43:14;99854.03;;;5.59;44.35
21276;BME280;36472;52.170;20.884;2023-03-12T12:45:49;99853.94;;;5.60;44.00
21276;BME280;36472;52.170;20.884;2023-03-12T12:48:24;99852.25;;;5.59;44.03
21276;BME280;36472;52.170;20.884;2023-03-12T12:50:55;99850.25;;;5.65;44.04
21276;BME280;36472;52.170;20.884;2023-03-12T12:53:37;99863.38;;;5.79;45.22
21276;BME280;36472;52.170;20.884;2023-03-12T12:56:18;99876.75;;;5.89;44.40
21276;BME280;36472;52.170;20.884;2023-03-12T12:59:17;99877.09;;;5.83;44.57
21276;BME280;36472;52.170;20.884;2023-03-12T13:01:54;99880.44;;;6.02;44.48
21276;BME280;36472;52.170;20.884;2023-03-12T13:04:27;99884.50;;;5.90;44.04
21276;BME280;36472;52.170;20.884;2023-03-12T13:07:02;99880.63;;;5.66;44.00
21276;BME280;36472;52.170;20.884;2023-03-12T13:09:56;99888.00;;;5.73;44.48
21276;BME280;36472;52.170;20.884;2023-03-12T13:12:30;99878.78;;;5.84;44.55
21276;BME280;36472;52.170;20.884;2023-03-12T13:15:35;99876.59;;;5.76;43.52
21276;BME280;36472;52.170;20.884;2023-03-12T13:18:19;99885.66;;;5.69;43.30
21276;BME280;36472;52.170;20.884;2023-03-12T13:21:17;99892.41;;;5.73;44.51
21276;BME280;36472;52.170;20.884;2023-03-12T13:24:04;99884.81;;;5.84;44.58
21276;BME280;36472;52.170;20.884;2023-03-12T13:26:50;99893.88;;;5.94;45.53
21276;BME280;36472;52.170;20.884;2023-03-12T13:29:36;99897.00;;;6.01;45.46
21276;BME280;36472;52.170;20.884;2023-03-12T13:35:31;99898.53;;;6.05;45.08
21276;BME280;36472;52.170;20.884;2023-03-12T13:38:09;99901.13;;;6.05;44.98
21276;BME280;36472;52.170;20.884;2023-03-12T13:41:00;99895.41;;;6.14;45.01